createdAt,value
2019-04-04T00:04:15.286Z,18.87
2019-04-04T00:09:22.598Z,19.34
2019-04-04T00:14:29.874Z,18.53
2019-04-04T00:19:37.204Z,19.91
2019-04-04T00:24:44.539Z,19.57
2019-04-04T00:29:51.761Z,17.04
2019-04-04T00:34:59.804Z,19.34
2019-04-04T00:40:05.785Z,18.10
2019-04-04T00:45:12.998Z,18.68
2019-04-04T00:50:20.267Z,15.25
2019-04-04T00:55:27.487Z,18.45
2019-04-04T01:00:34.754Z,18.93
2019-04-04T01:05:41.998Z,19.98
2019-04-04T01:10:49.829Z,18.84
2019-04-04T01:15:56.100Z,18.67
2019-04-04T01:21:03.364Z,18.18
2019-04-04T01:26:10.612Z,19.16
2019-04-04T01:31:17.885Z,18.26
2019-04-04T01:36:25.895Z,18.36
2019-04-04T01:41:31.951Z,17.22
2019-04-04T01:46:39.270Z,17.99
2019-04-04T01:51:46.479Z,20.18
2019-04-04T01:56:53.819Z,18.58
2019-04-04T02:02:01.066Z,17.44
2019-04-04T02:07:08.425Z,17.87
2019-04-04T02:12:15.647Z,17.23
2019-04-04T02:17:22.978Z,17.56
2019-04-04T02:22:31.035Z,17.55
2019-04-04T02:27:37.921Z,18.49
2019-04-04T02:32:43.893Z,17.68
2019-04-04T02:37:54.955Z,17.73
2019-04-04T02:42:58.092Z,18.15
2019-04-04T02:48:05.381Z,17.75
2019-04-04T02:53:12.601Z,19.09
2019-04-04T02:58:19.873Z,19.10
2019-04-04T03:03:27.106Z,18.63
2019-04-04T03:08:36.758Z,18.16
2019-04-04T03:13:41.214Z,17.61
2019-04-04T03:18:48.520Z,18.16
2019-04-04T03:23:55.842Z,18.05
2019-04-04T03:29:05.489Z,17.30
2019-04-04T03:34:12.194Z,18.02
2019-04-04T03:39:19.105Z,17.60
2019-04-04T03:44:23.445Z,17.84
2019-04-04T03:49:30.814Z,15.75
2019-04-04T03:54:38.129Z,16.49
2019-04-04T03:59:45.381Z,15.11
2019-04-04T04:04:52.658Z,16.75
2019-04-04T04:10:00.443Z,17.12
2019-04-04T04:15:06.685Z,17.46
2019-04-04T04:20:14.050Z,17.22
2019-04-04T04:25:21.314Z,17.92
2019-04-04T04:30:28.615Z,18.30
2019-04-04T04:35:40.914Z,17.95
2019-04-04T04:40:47.061Z,17.33
2019-04-04T04:45:49.436Z,17.52
2019-04-04T04:50:56.715Z,17.41
2019-04-04T04:56:04.068Z,16.42
2019-04-04T05:01:11.280Z,18.05
2019-04-04T05:06:18.695Z,17.88
2019-04-04T05:11:25.891Z,19.01
2019-04-04T05:16:33.314Z,16.56
2019-04-04T05:21:40.711Z,17.62
2019-04-04T05:26:47.990Z,17.25
2019-04-04T05:31:55.269Z,17.56
2019-04-04T05:37:02.663Z,16.45
2019-04-04T05:42:09.948Z,16.04
2019-04-04T05:47:17.251Z,17.69
2019-04-04T05:52:24.619Z,17.90
2019-04-04T05:57:31.980Z,17.08
2019-04-04T06:02:41.076Z,17.24
2019-04-04T06:07:46.064Z,16.82
2019-04-04T06:12:54.325Z,17.10
2019-04-04T06:18:00.231Z,16.36
2019-04-04T06:23:07.552Z,15.66
2019-04-04T06:28:14.903Z,19.03
2019-04-04T06:33:22.199Z,18.66
2019-04-04T06:38:29.545Z,18.45
2019-04-04T06:43:36.867Z,17.62
2019-04-04T06:48:44.173Z,15.74
2019-04-04T06:53:53.654Z,14.12
2019-04-04T06:58:58.409Z,18.00
2019-04-04T07:04:05.639Z,16.83
2019-04-04T07:09:13.457Z,18.30
2019-04-04T07:14:20.034Z,16.89
2019-04-04T07:19:27.425Z,17.35
2019-04-04T07:24:34.935Z,16.36
2019-04-04T07:29:42.223Z,19.70
2019-04-04T07:34:49.465Z,16.38
2019-04-04T07:39:56.725Z,16.50
2019-04-04T07:45:04.005Z,15.73
2019-04-04T07:50:11.235Z,15.70
2019-04-04T07:55:18.938Z,16.27
2019-04-04T08:00:26.145Z,15.78
2019-04-04T08:05:33.452Z,14.84
2019-04-04T08:10:40.781Z,14.93
2019-04-04T08:15:51.415Z,22.43
2019-04-04T08:20:48.649Z,17.75
2019-04-04T08:25:55.962Z,16.16
2019-04-04T08:31:03.234Z,16.20
2019-04-04T08:36:10.485Z,16.47
2019-04-04T08:41:17.718Z,14.72
2019-04-04T08:46:25.044Z,12.57
2019-04-04T08:51:32.306Z,12.80
2019-04-04T08:56:39.585Z,14.33
2019-04-04T09:01:46.923Z,13.63
2019-04-04T09:06:54.174Z,11.90
2019-04-04T09:12:01.486Z,15.67
2019-04-04T09:17:08.730Z,12.15
2019-04-04T09:22:16.045Z,13.67
2019-04-04T09:27:23.332Z,12.14
2019-04-04T09:32:30.655Z,11.80
2019-04-04T09:37:37.876Z,12.58
2019-04-04T09:42:45.230Z,11.62
2019-04-04T09:47:52.486Z,13.74
2019-04-04T09:52:59.706Z,13.36
2019-04-04T09:58:06.965Z,17.45
2019-04-04T10:03:14.214Z,18.66
2019-04-04T10:08:21.695Z,15.07
2019-04-04T10:13:28.845Z,19.15
2019-04-04T10:18:36.155Z,19.72
2019-04-04T10:23:44.215Z,17.72
2019-04-04T10:28:51.549Z,18.30
2019-04-04T10:33:58.937Z,18.85
2019-04-04T10:39:06.184Z,19.05
2019-04-04T10:44:13.456Z,20.25
2019-04-04T10:49:20.794Z,18.15
2019-04-04T10:54:28.122Z,18.84
2019-04-04T10:59:35.519Z,20.11
2019-04-04T11:04:42.840Z,18.30
2019-04-04T11:09:50.396Z,18.46
2019-04-04T11:14:57.727Z,18.11
2019-04-04T11:20:05.027Z,18.73
2019-04-04T11:25:12.327Z,18.55
2019-04-04T11:30:19.641Z,18.21
2019-04-04T11:35:26.938Z,16.96
2019-04-04T11:40:34.230Z,15.69
2019-04-04T11:45:41.567Z,18.09
2019-04-04T11:50:48.927Z,19.45
2019-04-04T11:55:56.202Z,18.81
2019-04-04T12:01:03.445Z,16.00
2019-04-04T12:06:10.851Z,15.00
2019-04-04T12:11:18.175Z,16.28
2019-04-04T12:16:25.558Z,17.00
2019-04-04T12:21:32.783Z,18.11
2019-04-04T12:26:40.099Z,17.28
2019-04-04T12:31:47.680Z,18.33
2019-04-04T12:36:54.703Z,17.12
2019-04-04T12:42:02.023Z,17.44
2019-04-04T12:47:09.322Z,15.32
2019-04-04T12:52:16.607Z,14.98
2019-04-04T12:57:23.850Z,17.42
2019-04-04T13:02:31.158Z,15.33
2019-04-04T13:07:38.444Z,16.66
2019-04-04T13:12:45.845Z,14.83
2019-04-04T13:17:53.249Z,14.30
2019-04-04T13:23:00.576Z,13.62
2019-04-04T13:28:07.890Z,16.18
2019-04-04T13:33:15.180Z,17.20
2019-04-04T13:38:22.464Z,18.38
2019-04-04T13:43:29.738Z,17.63
2019-04-04T13:48:37.107Z,22.01
2019-04-04T13:53:44.435Z,19.71
2019-04-04T13:58:51.743Z,19.52
2019-04-04T14:03:59.147Z,23.26
2019-04-04T14:09:06.517Z,22.52
2019-04-04T14:14:13.836Z,20.05
2019-04-04T14:19:21.157Z,21.98
2019-04-04T14:24:28.435Z,24.63
2019-04-04T14:29:35.703Z,22.87
2019-04-04T14:34:43.071Z,24.86
2019-04-04T14:39:50.318Z,24.90
2019-04-04T14:44:57.728Z,20.42
2019-04-04T14:50:05.022Z,20.06
2019-04-04T14:55:12.302Z,20.71
2019-04-04T15:00:19.645Z,23.39
2019-04-04T15:05:26.910Z,23.68
2019-04-04T15:10:34.189Z,22.29
2019-04-04T15:15:41.516Z,22.99
2019-04-04T15:20:48.762Z,24.86
2019-04-04T15:25:56.213Z,24.24
2019-04-04T15:31:03.413Z,22.52
2019-04-04T15:36:10.729Z,22.22
2019-04-04T15:41:17.966Z,21.18
2019-04-04T15:46:25.234Z,20.15
2019-04-04T15:51:32.474Z,14.96
2019-04-04T15:56:39.737Z,15.77
2019-04-04T16:01:47.042Z,14.62
2019-04-04T16:06:54.622Z,18.15
2019-04-04T16:12:01.973Z,18.01
2019-04-04T16:17:09.297Z,19.96
2019-04-04T16:22:16.543Z,18.72
2019-04-04T16:27:23.892Z,19.96
2019-04-04T16:32:31.285Z,20.38
2019-04-04T16:37:38.683Z,19.63
2019-04-04T16:42:46.033Z,21.65
2019-04-04T16:47:53.359Z,21.19
2019-04-04T16:53:00.718Z,20.62
2019-04-04T16:58:07.974Z,19.74
2019-04-04T17:03:15.298Z,20.12
2019-04-04T17:08:22.569Z,20.77
2019-04-04T17:13:29.893Z,18.55
2019-04-04T17:18:37.179Z,20.63
2019-04-04T17:23:44.531Z,18.23
2019-04-04T17:28:52.432Z,19.12
2019-04-04T17:34:00.271Z,19.05
2019-04-04T17:39:07.578Z,30.83
2019-04-04T17:44:14.892Z,59.08
2019-04-04T17:49:22.221Z,21.38
2019-04-04T17:54:29.575Z,18.76
2019-04-04T17:59:36.817Z,18.18
2019-04-04T18:04:48.605Z,17.39
2019-04-04T18:09:50.923Z,17.67
2019-04-04T18:14:58.385Z,18.77
2019-04-04T18:20:05.689Z,18.79
2019-04-04T18:25:13.633Z,18.86
2019-04-04T18:30:21.235Z,18.54
2019-04-04T18:35:28.807Z,19.19
2019-04-04T18:40:35.392Z,18.25
2019-04-04T18:45:42.772Z,18.92
2019-04-04T18:50:50.037Z,20.60
2019-04-04T18:55:57.354Z,20.16
2019-04-04T19:01:04.681Z,18.99
2019-04-04T19:06:12.050Z,19.29
2019-04-04T19:11:19.447Z,20.35
2019-04-04T19:16:26.847Z,19.65
2019-04-04T19:21:34.186Z,20.28
2019-04-04T19:26:41.763Z,20.97
2019-04-04T19:31:49.102Z,20.58
2019-04-04T19:36:56.465Z,20.96
2019-04-04T19:42:05.118Z,22.09
2019-04-04T19:47:10.675Z,23.64
2019-04-04T19:52:18.256Z,22.66
2019-04-04T19:57:25.643Z,21.89
2019-04-04T20:02:33.236Z,22.34
2019-04-04T20:07:40.852Z,21.34
2019-04-04T20:12:48.139Z,22.62
2019-04-04T20:17:55.409Z,24.12
2019-04-04T20:23:02.771Z,24.40
2019-04-04T20:28:10.134Z,23.89
2019-04-04T20:33:17.505Z,24.28
2019-04-04T20:38:25.452Z,26.19
2019-04-04T20:43:42.805Z,26.08
2019-04-04T20:48:39.475Z,23.92
2019-04-04T20:53:46.903Z,22.80
2019-04-04T20:58:54.195Z,22.05
2019-04-04T21:04:01.625Z,23.38
2019-04-04T21:09:08.964Z,23.85
2019-04-04T21:14:16.285Z,23.96
2019-04-04T21:19:23.612Z,27.34
2019-04-04T21:24:30.903Z,27.26
2019-04-04T21:29:38.181Z,26.38
2019-04-04T21:34:45.497Z,27.63
2019-04-04T21:39:52.753Z,30.21
2019-04-04T21:45:00.125Z,27.92
2019-04-04T21:50:07.395Z,32.42
2019-04-04T21:55:14.744Z,28.14
2019-04-04T22:00:22.051Z,30.51
2019-04-04T22:05:29.309Z,32.94
2019-04-04T22:10:36.603Z,31.38
2019-04-04T22:15:43.830Z,30.32
2019-04-04T22:20:51.107Z,32.26
2019-04-04T22:25:58.429Z,34.00
2019-04-04T22:31:05.766Z,30.94
2019-04-04T22:36:14.394Z,31.87
2019-04-04T22:41:21.805Z,30.51
2019-04-04T22:46:29.111Z,32.68
2019-04-04T22:51:36.455Z,31.44
2019-04-04T22:56:43.882Z,29.73
2019-04-04T23:01:51.309Z,32.71
2019-04-04T23:06:58.620Z,32.32
2019-04-04T23:12:05.822Z,30.92
2019-04-04T23:17:13.174Z,31.92
2019-04-04T23:22:20.342Z,34.51
2019-04-04T23:27:27.645Z,34.50
2019-04-04T23:32:34.901Z,35.88
2019-04-04T23:37:42.190Z,34.15
2019-04-04T23:42:49.543Z,34.06
2019-04-04T23:47:56.846Z,30.45
2019-04-04T23:53:04.074Z,32.62
2019-04-04T23:58:11.385Z,32.65
